createdAt,value
2023-04-29T00:01:16.301Z,19.16
2023-04-29T00:03:43.218Z,19.16
2023-04-29T00:06:11.735Z,19.16
2023-04-29T00:08:38.600Z,19.17
2023-04-29T00:11:05.548Z,19.16
2023-04-29T00:13:32.362Z,19.15
2023-04-29T00:15:59.143Z,19.15
2023-04-29T00:18:25.851Z,19.16
2023-04-29T00:20:52.576Z,19.16
2023-04-29T00:23:19.269Z,19.15
2023-04-29T00:25:46.035Z,19.14
2023-04-29T00:28:12.798Z,19.14
2023-04-29T00:30:39.532Z,19.15
2023-04-29T00:33:06.623Z,19.16
2023-04-29T00:35:33.400Z,19.14
2023-04-29T00:38:00.344Z,19.14
2023-04-29T00:40:28.671Z,19.15
2023-04-29T00:42:55.434Z,19.11
2023-04-29T00:45:22.391Z,19.12
2023-04-29T00:47:49.185Z,19.13
2023-04-29T00:50:16.055Z,19.13
2023-04-29T00:52:43.471Z,19.10
2023-04-29T00:55:13.257Z,19.11
2023-04-29T00:57:40.194Z,19.12
2023-04-29T01:00:07.697Z,19.11
2023-04-29T01:02:35.122Z,19.10
2023-04-29T01:05:02.082Z,19.09
2023-04-29T01:08:09.512Z,19.09
2023-04-29T01:10:42.208Z,19.10
2023-04-29T01:13:19.286Z,19.09
2023-04-29T01:16:05.803Z,19.11
2023-04-29T01:18:50.681Z,19.10
2023-04-29T01:21:18.337Z,19.09
2023-04-29T01:23:46.080Z,19.09
2023-04-29T01:26:13.993Z,19.10
2023-04-29T01:28:54.932Z,19.09
2023-04-29T01:31:42.019Z,19.10
2023-04-29T01:34:14.723Z,19.07
2023-04-29T01:36:58.956Z,19.08
2023-04-29T01:39:44.010Z,19.09
2023-04-29T01:42:23.817Z,19.08
2023-04-29T01:44:53.379Z,19.07
2023-04-29T01:47:20.742Z,19.06
2023-04-29T01:49:47.542Z,19.07
2023-04-29T01:52:14.284Z,19.07
2023-04-29T01:54:41.059Z,19.07
2023-04-29T01:57:07.880Z,19.07
2023-04-29T01:59:34.774Z,19.08
2023-04-29T02:02:01.622Z,19.06
2023-04-29T02:04:28.918Z,19.07
2023-04-29T02:06:55.774Z,19.06
2023-04-29T02:09:22.506Z,19.04
2023-04-29T02:11:49.206Z,19.04
2023-04-29T02:14:16.054Z,19.05
2023-04-29T02:16:46.071Z,19.03
2023-04-29T02:19:13.504Z,19.05
2023-04-29T02:21:40.378Z,19.06
2023-04-29T02:24:07.435Z,19.02
2023-04-29T02:26:34.704Z,19.00
2023-04-29T02:29:01.839Z,19.01
2023-04-29T02:31:29.416Z,19.03
2023-04-29T02:33:56.308Z,19.02
2023-04-29T02:36:23.073Z,19.00
2023-04-29T02:38:51.007Z,19.00
2023-04-29T02:41:18.484Z,18.97
2023-04-29T02:43:45.613Z,18.96
2023-04-29T02:46:12.608Z,18.96
2023-04-29T02:48:39.469Z,18.95
2023-04-29T02:51:06.843Z,18.94
2023-04-29T02:53:33.734Z,18.97
2023-04-29T02:56:00.463Z,18.95
2023-04-29T02:58:27.322Z,18.94
2023-04-29T03:00:54.157Z,18.97
2023-04-29T03:03:21.149Z,18.96
2023-04-29T03:05:48.013Z,18.96
2023-04-29T03:08:14.892Z,18.96
2023-04-29T03:10:41.921Z,18.92
2023-04-29T03:13:08.724Z,18.93
2023-04-29T03:15:35.660Z,18.95
2023-04-29T03:18:04.284Z,18.93
2023-04-29T03:20:31.062Z,18.91
2023-04-29T03:22:58.021Z,18.93
2023-04-29T03:25:24.863Z,18.91
2023-04-29T03:27:51.784Z,18.92
2023-04-29T03:30:18.613Z,18.92
2023-04-29T03:32:45.563Z,18.89
2023-04-29T03:35:15.532Z,18.91
2023-04-29T03:37:44.764Z,18.90
2023-04-29T03:40:12.474Z,18.90
2023-04-29T03:42:39.222Z,18.87
2023-04-29T03:45:07.153Z,18.87
2023-04-29T03:47:34.187Z,18.89
2023-04-29T03:50:00.967Z,18.92
2023-04-29T03:52:27.797Z,18.91
2023-04-29T03:54:54.781Z,18.86
2023-04-29T03:57:21.834Z,18.88
2023-04-29T03:59:50.894Z,18.84
2023-04-29T04:02:18.125Z,18.85
2023-04-29T04:04:45.255Z,18.85
2023-04-29T04:07:12.522Z,18.88
2023-04-29T04:09:39.304Z,18.90
2023-04-29T04:12:06.826Z,18.89
2023-04-29T04:14:33.758Z,18.90
2023-04-29T04:17:01.436Z,18.89
2023-04-29T04:19:29.384Z,18.90
2023-04-29T04:21:56.176Z,18.91
2023-04-29T04:24:23.569Z,18.90
2023-04-29T04:26:50.496Z,18.87
2023-04-29T04:29:17.297Z,18.87
2023-04-29T04:31:46.315Z,18.86
2023-04-29T04:34:13.903Z,18.85
2023-04-29T04:36:41.625Z,18.87
2023-04-29T04:39:08.618Z,18.88
2023-04-29T04:41:35.851Z,18.85
2023-04-29T04:44:03.298Z,18.85
2023-04-29T04:46:30.107Z,18.86
2023-04-29T04:48:56.922Z,18.85
2023-04-29T04:51:23.680Z,18.87
2023-04-29T04:53:50.451Z,18.86
2023-04-29T04:56:17.170Z,18.89
2023-04-29T04:58:44.394Z,18.87
2023-04-29T05:01:11.250Z,18.90
2023-04-29T05:03:38.203Z,18.88
2023-04-29T05:06:05.137Z,18.89
2023-04-29T05:08:31.914Z,18.92
2023-04-29T05:10:58.799Z,18.92
2023-04-29T05:13:25.840Z,18.89
2023-04-29T05:15:52.666Z,18.93
2023-04-29T05:18:19.393Z,18.90
2023-04-29T05:20:46.119Z,18.93
2023-04-29T05:23:12.929Z,18.94
2023-04-29T05:25:39.674Z,18.96
2023-04-29T05:28:07.546Z,18.94
2023-04-29T05:30:34.560Z,18.94
2023-04-29T05:33:01.321Z,18.94
2023-04-29T05:35:28.097Z,18.94
2023-04-29T05:37:54.852Z,18.95
2023-04-29T05:40:23.531Z,18.95
2023-04-29T05:42:50.332Z,18.96
2023-04-29T05:45:17.184Z,18.98
2023-04-29T05:47:44.040Z,18.98
2023-04-29T05:50:11.764Z,19.00
2023-04-29T05:52:39.394Z,19.00
2023-04-29T05:55:06.566Z,19.02
2023-04-29T05:57:33.344Z,19.03
2023-04-29T06:00:00.856Z,19.02
2023-04-29T06:02:28.339Z,19.02
2023-04-29T06:04:55.669Z,19.03
2023-04-29T06:07:23.023Z,19.07
2023-04-29T06:09:50.534Z,19.08
2023-04-29T06:12:17.514Z,19.08
2023-04-29T06:14:44.610Z,19.10
2023-04-29T06:17:11.575Z,19.10
2023-04-29T06:19:38.790Z,19.09
2023-04-29T06:22:05.675Z,19.11
2023-04-29T06:24:32.392Z,19.12
2023-04-29T06:26:59.139Z,19.11
2023-04-29T06:29:25.881Z,19.07
2023-04-29T06:31:54.615Z,19.10
2023-04-29T06:34:21.356Z,19.11
2023-04-29T06:36:48.097Z,19.09
2023-04-29T06:39:15.264Z,19.10
2023-04-29T06:41:41.974Z,19.11
2023-04-29T06:44:08.866Z,19.12
2023-04-29T06:46:36.254Z,19.15
2023-04-29T06:49:03.087Z,19.12
2023-04-29T06:51:29.954Z,19.09
2023-04-29T06:53:56.741Z,19.10
2023-04-29T06:56:24.054Z,19.17
2023-04-29T06:58:50.856Z,19.23
2023-04-29T07:01:17.718Z,19.27
2023-04-29T07:03:44.798Z,19.28
2023-04-29T07:06:11.724Z,19.26
2023-04-29T07:08:38.715Z,19.27
2023-04-29T07:11:05.586Z,19.29
2023-04-29T07:13:32.538Z,19.33
2023-04-29T07:15:59.295Z,19.30
2023-04-29T07:18:26.564Z,19.32
2023-04-29T07:20:53.441Z,19.27
2023-04-29T07:23:20.183Z,19.30
2023-04-29T07:25:47.266Z,19.25
2023-04-29T07:28:13.980Z,19.27
2023-04-29T07:30:40.995Z,19.30
2023-04-29T07:33:07.957Z,19.29
2023-04-29T07:35:34.731Z,19.37
2023-04-29T07:38:01.543Z,19.36
2023-04-29T07:40:28.344Z,19.41
2023-04-29T07:42:55.152Z,19.46
2023-04-29T07:45:22.016Z,19.48
2023-04-29T07:47:48.949Z,19.48
2023-04-29T07:50:16.460Z,19.46
2023-04-29T07:52:43.173Z,19.48
2023-04-29T07:55:10.074Z,19.53
2023-04-29T07:57:37.102Z,19.55
2023-04-29T08:00:04.728Z,19.57
2023-04-29T08:02:31.719Z,19.54
2023-04-29T08:04:59.061Z,19.55
2023-04-29T08:07:26.187Z,19.51
2023-04-29T08:09:53.086Z,19.51
2023-04-29T08:12:19.885Z,19.56
2023-04-29T08:14:47.260Z,19.57
2023-04-29T08:17:14.171Z,19.64
2023-04-29T08:19:41.282Z,19.63
2023-04-29T08:22:08.078Z,19.64
2023-04-29T08:24:35.620Z,19.69
2023-04-29T08:27:04.643Z,19.71
2023-04-29T08:29:39.513Z,19.63
2023-04-29T08:32:06.848Z,19.64
2023-04-29T08:34:36.355Z,19.69
2023-04-29T08:37:03.796Z,19.74
2023-04-29T08:39:31.516Z,19.77
2023-04-29T08:41:59.290Z,19.75
2023-04-29T08:44:30.350Z,19.75
2023-04-29T08:46:59.327Z,19.76
2023-04-29T08:49:26.979Z,19.78
2023-04-29T08:51:53.703Z,19.82
2023-04-29T08:54:20.614Z,19.84
2023-04-29T08:56:48.006Z,19.84
2023-04-29T08:59:16.544Z,19.90
2023-04-29T09:01:44.837Z,19.90
2023-04-29T09:04:33.169Z,19.95
2023-04-29T09:07:00.527Z,19.95
2023-04-29T09:09:28.057Z,19.94
2023-04-29T09:11:56.019Z,19.92
2023-04-29T09:14:24.277Z,19.96
2023-04-29T09:16:51.868Z,20.02
2023-04-29T09:19:35.540Z,20.13
2023-04-29T09:22:03.842Z,20.12
2023-04-29T09:24:31.962Z,20.13
2023-04-29T09:27:00.069Z,20.13
2023-04-29T09:29:27.352Z,20.12
2023-04-29T09:31:54.183Z,20.12
2023-04-29T09:34:38.082Z,20.09
2023-04-29T09:37:23.235Z,20.07
2023-04-29T09:39:50.196Z,20.02
2023-04-29T09:42:17.074Z,20.00
2023-04-29T09:44:44.472Z,20.00
2023-04-29T09:47:13.437Z,20.06
2023-04-29T09:49:42.807Z,20.10
2023-04-29T09:52:18.476Z,20.09
2023-04-29T09:54:45.474Z,20.10
2023-04-29T09:57:14.028Z,20.12
2023-04-29T09:59:42.095Z,20.13
2023-04-29T10:02:18.017Z,20.18
2023-04-29T10:04:46.673Z,20.26
2023-04-29T10:07:18.094Z,20.31
2023-04-29T10:09:48.006Z,20.36
2023-04-29T10:12:17.680Z,20.38
2023-04-29T10:14:51.170Z,20.41
2023-04-29T10:17:24.930Z,20.46
2023-04-29T10:19:58.843Z,20.44
2023-04-29T10:22:48.086Z,20.44
2023-04-29T10:25:19.798Z,20.44
2023-04-29T10:27:49.112Z,20.46
2023-04-29T10:30:17.930Z,20.45
2023-04-29T10:35:20.198Z,20.55
2023-04-29T10:37:48.994Z,20.63
2023-04-29T10:40:18.870Z,20.63
2023-04-29T10:42:47.984Z,20.65
2023-04-29T10:45:27.605Z,20.65
2023-04-29T10:48:06.011Z,20.65
2023-04-29T10:50:34.610Z,20.65
2023-04-29T10:53:05.567Z,20.60
2023-04-29T10:55:36.794Z,20.61
2023-04-29T10:58:05.284Z,20.67
2023-04-29T11:00:35.212Z,20.75
2023-04-29T11:03:02.998Z,20.79
2023-04-29T11:05:34.949Z,20.83
2023-04-29T11:08:24.578Z,20.84
2023-04-29T11:11:00.424Z,20.81
2023-04-29T11:13:29.164Z,20.83
2023-04-29T11:16:10.395Z,20.83
2023-04-29T11:19:06.637Z,20.93
2023-04-29T11:21:37.540Z,20.97
2023-04-29T11:24:06.773Z,21.00
2023-04-29T11:26:35.787Z,20.97
2023-04-29T11:29:02.588Z,21.03
2023-04-29T11:31:33.127Z,21.07
2023-04-29T11:34:00.773Z,21.06
2023-04-29T11:36:27.782Z,21.08
2023-04-29T11:38:54.630Z,21.13
2023-04-29T11:41:22.624Z,21.12
2023-04-29T11:44:21.519Z,21.10
2023-04-29T11:46:48.456Z,21.08
2023-04-29T11:49:15.234Z,21.07
2023-04-29T11:51:41.972Z,21.08
2023-04-29T11:54:08.729Z,21.07
2023-04-29T11:56:38.194Z,21.09
2023-04-29T11:59:08.315Z,21.13
2023-04-29T12:01:36.266Z,21.23
2023-04-29T12:04:04.142Z,21.27
2023-04-29T12:06:31.843Z,21.28
2023-04-29T12:09:01.939Z,21.35
2023-04-29T12:11:29.164Z,21.41
2023-04-29T12:13:57.192Z,21.40
2023-04-29T12:16:29.436Z,21.39
2023-04-29T12:18:56.604Z,21.37
2023-04-29T12:21:23.292Z,21.36
2023-04-29T12:23:51.731Z,21.39
2023-04-29T12:26:19.465Z,21.33
2023-04-29T12:28:46.539Z,21.37
2023-04-29T12:31:15.961Z,21.39
2023-04-29T12:33:44.545Z,21.42
2023-04-29T12:36:18.678Z,21.45
2023-04-29T12:38:47.488Z,21.49
2023-04-29T12:41:15.907Z,21.49
2023-04-29T12:43:42.931Z,21.53
2023-04-29T12:46:13.023Z,21.59
2023-04-29T12:48:41.902Z,21.57
2023-04-29T12:51:10.438Z,21.62
2023-04-29T12:53:37.691Z,21.63
2023-04-29T12:56:05.848Z,21.59
2023-04-29T12:58:34.423Z,21.64
2023-04-29T13:01:01.660Z,21.59
2023-04-29T13:03:28.608Z,21.51
2023-04-29T13:05:56.146Z,21.48
2023-04-29T13:08:23.310Z,21.47
2023-04-29T13:10:50.287Z,21.39
2023-04-29T13:13:17.197Z,21.50
2023-04-29T13:15:44.050Z,21.69
2023-04-29T13:18:11.002Z,21.77
2023-04-29T13:20:41.539Z,21.77
2023-04-29T13:23:09.920Z,21.67
2023-04-29T13:25:36.778Z,21.57
2023-04-29T13:28:05.738Z,21.55
2023-04-29T13:30:33.478Z,21.54
2023-04-29T13:33:09.273Z,21.59
2023-04-29T13:35:40.491Z,21.58
2023-04-29T13:38:08.546Z,21.56
2023-04-29T13:40:39.411Z,21.53
2023-04-29T13:43:13.772Z,21.48
2023-04-29T13:45:45.604Z,21.50
2023-04-29T13:48:37.461Z,21.50
2023-04-29T13:59:08.983Z,21.87
2023-04-29T14:01:55.228Z,22.01
2023-04-29T14:04:04.121Z,22.03
2023-04-29T14:06:32.749Z,22.03
2023-04-29T14:09:00.499Z,22.02
2023-04-29T14:11:28.878Z,21.96
2023-04-29T14:13:55.584Z,21.91
2023-04-29T14:16:22.383Z,21.84
2023-04-29T14:18:49.241Z,21.80
2023-04-29T14:21:16.434Z,21.82
2023-04-29T14:23:43.166Z,21.93
2023-04-29T14:28:39.597Z,21.87
2023-04-29T14:31:06.533Z,21.92
2023-04-29T14:33:33.229Z,21.89
2023-04-29T14:36:01.299Z,21.84
2023-04-29T14:38:28.572Z,21.79
2023-04-29T14:40:55.288Z,21.73
2023-04-29T14:43:22.175Z,21.71
2023-04-29T14:45:48.994Z,21.62
2023-04-29T14:48:15.785Z,21.57
2023-04-29T14:50:42.471Z,21.52
2023-04-29T14:53:09.306Z,21.50
2023-04-29T14:55:36.141Z,21.48
2023-04-29T14:58:05.178Z,21.45
2023-04-29T15:00:32.130Z,21.43
2023-04-29T15:02:59.216Z,21.44
2023-04-29T15:05:26.160Z,21.44
2023-04-29T15:07:52.909Z,21.43
2023-04-29T15:10:19.625Z,21.41
2023-04-29T15:12:46.325Z,21.40
2023-04-29T15:15:13.100Z,21.38
2023-04-29T15:17:39.927Z,21.37
2023-04-29T15:20:07.815Z,21.36
2023-04-29T15:22:34.515Z,21.34
2023-04-29T15:25:01.460Z,21.32
2023-04-29T15:27:28.547Z,21.32
2023-04-29T15:29:57.171Z,21.31
2023-04-29T15:32:31.673Z,21.29
2023-04-29T15:35:02.681Z,21.28
2023-04-29T15:37:30.774Z,21.28
2023-04-29T15:40:01.702Z,21.27
2023-04-29T15:42:28.695Z,21.27
2023-04-29T15:44:55.469Z,21.28
2023-04-29T15:47:22.891Z,21.28
2023-04-29T15:49:52.928Z,21.29
2023-04-29T15:52:19.829Z,21.29
2023-04-29T15:54:46.722Z,21.29
2023-04-29T15:57:14.237Z,21.26
2023-04-29T15:59:41.206Z,21.26
2023-04-29T16:02:11.076Z,21.26
2023-04-29T16:04:38.731Z,21.26
2023-04-29T16:07:05.828Z,21.29
2023-04-29T16:09:33.948Z,21.29
2023-04-29T16:12:01.200Z,21.28
2023-04-29T16:14:28.469Z,21.28
2023-04-29T16:16:56.054Z,21.29
2023-04-29T16:19:22.961Z,21.28
2023-04-29T16:21:49.705Z,21.29
2023-04-29T16:24:16.739Z,21.26
2023-04-29T16:26:43.543Z,21.24
2023-04-29T16:29:10.415Z,21.22
2023-04-29T16:31:37.519Z,21.20
2023-04-29T16:34:04.772Z,21.18
2023-04-29T16:36:32.760Z,21.17
2023-04-29T16:38:59.622Z,21.17
2023-04-29T16:41:26.360Z,21.15
2023-04-29T16:43:54.222Z,21.14
2023-04-29T16:46:22.573Z,21.14
2023-04-29T16:48:52.124Z,21.13
2023-04-29T16:51:19.144Z,21.12
2023-04-29T16:53:46.229Z,21.10
2023-04-29T16:56:12.932Z,21.09
2023-04-29T16:58:39.662Z,21.09
2023-04-29T17:01:07.995Z,21.09
2023-04-29T17:03:35.495Z,21.08
2023-04-29T17:06:02.889Z,21.08
2023-04-29T17:08:29.850Z,21.08
2023-04-29T17:10:56.554Z,21.08
2023-04-29T17:13:23.357Z,21.08
2023-04-29T17:15:50.212Z,21.07
2023-04-29T17:18:16.981Z,21.06
2023-04-29T17:20:44.047Z,21.07
2023-04-29T17:23:10.823Z,21.06
2023-04-29T17:25:38.123Z,21.04
2023-04-29T17:28:06.625Z,21.03
2023-04-29T17:30:36.266Z,21.03
2023-04-29T17:33:06.009Z,21.03
2023-04-29T17:35:33.864Z,21.01
2023-04-29T17:38:00.949Z,21.00
2023-04-29T17:40:27.842Z,20.98
2023-04-29T17:42:54.640Z,20.98
2023-04-29T17:45:21.746Z,20.96
2023-04-29T17:47:48.666Z,20.96
2023-04-29T17:50:15.463Z,20.95
2023-04-29T17:52:43.045Z,20.95
2023-04-29T17:55:10.689Z,20.94
2023-04-29T17:57:38.395Z,20.93
2023-04-29T18:00:07.545Z,20.93
2023-04-29T18:02:34.890Z,20.91
2023-04-29T18:05:03.440Z,20.90
2023-04-29T18:07:30.190Z,20.89
2023-04-29T18:09:57.381Z,20.90
2023-04-29T18:12:25.173Z,20.87
2023-04-29T18:14:52.472Z,20.87
2023-04-29T18:17:19.813Z,20.85
2023-04-29T18:19:48.824Z,20.84
2023-04-29T18:22:16.190Z,20.83
2023-04-29T18:24:43.504Z,20.83
2023-04-29T18:27:10.333Z,20.82
2023-04-29T18:29:37.185Z,20.83
2023-04-29T18:32:06.375Z,20.82
2023-04-29T18:34:34.642Z,20.80
2023-04-29T18:37:01.875Z,20.81
2023-04-29T18:39:28.651Z,20.80
2023-04-29T18:41:56.216Z,20.80
2023-04-29T18:44:23.004Z,20.80
2023-04-29T18:46:49.888Z,20.78
2023-04-29T18:49:18.106Z,20.76
2023-04-29T18:51:48.096Z,20.77
2023-04-29T18:54:16.918Z,20.77
2023-04-29T18:56:46.718Z,20.77
2023-04-29T18:59:19.274Z,20.76
2023-04-29T19:01:47.476Z,20.75
2023-04-29T19:04:15.362Z,20.74
2023-04-29T19:06:42.824Z,20.73
2023-04-29T19:09:09.979Z,20.72
2023-04-29T19:11:36.836Z,20.73
2023-04-29T19:14:04.445Z,20.71
2023-04-29T19:16:31.221Z,20.72
2023-04-29T19:18:58.036Z,20.71
2023-04-29T19:21:24.929Z,20.69
2023-04-29T19:23:51.670Z,20.68
2023-04-29T19:26:18.440Z,20.66
2023-04-29T19:28:45.389Z,20.66
2023-04-29T19:31:12.170Z,20.64
2023-04-29T19:33:38.905Z,20.64
2023-04-29T19:36:05.693Z,20.64
2023-04-29T19:38:32.413Z,20.62
2023-04-29T19:40:59.175Z,20.61
2023-04-29T19:43:25.865Z,20.60
2023-04-29T19:45:52.973Z,20.60
2023-04-29T19:48:19.762Z,20.59
2023-04-29T19:50:46.622Z,20.59
2023-04-29T19:53:13.418Z,20.58
2023-04-29T19:55:40.334Z,20.56
2023-04-29T19:58:07.813Z,20.54
2023-04-29T20:00:34.937Z,20.54
2023-04-29T20:03:01.925Z,20.53
2023-04-29T20:05:29.193Z,20.53
2023-04-29T20:07:56.274Z,20.52
2023-04-29T20:10:23.162Z,20.50
2023-04-29T20:12:49.950Z,20.49
2023-04-29T20:15:16.921Z,20.48
2023-04-29T20:17:43.917Z,20.47
2023-04-29T20:20:11.252Z,20.47
2023-04-29T20:22:38.923Z,20.46
2023-04-29T20:25:06.553Z,20.45
2023-04-29T20:27:33.373Z,20.45
2023-04-29T20:30:00.257Z,20.45
2023-04-29T20:32:27.414Z,20.43
2023-04-29T20:34:54.870Z,20.42
2023-04-29T20:37:21.858Z,20.42
2023-04-29T20:39:48.919Z,20.42
2023-04-29T20:42:15.747Z,20.41
2023-04-29T20:44:42.658Z,20.39
2023-04-29T20:47:09.858Z,20.38
2023-04-29T20:49:37.280Z,20.38
2023-04-29T20:52:06.600Z,20.38
2023-04-29T20:54:34.160Z,20.36
2023-04-29T20:57:01.859Z,20.34
2023-04-29T20:59:28.623Z,20.33
2023-04-29T21:01:55.389Z,20.33
2023-04-29T21:04:22.305Z,20.33
2023-04-29T21:06:50.959Z,20.32
2023-04-29T21:09:21.777Z,20.32
2023-04-29T21:11:48.611Z,20.31
2023-04-29T21:14:15.423Z,20.29
2023-04-29T21:16:42.774Z,20.29
2023-04-29T21:19:09.586Z,20.28
2023-04-29T21:21:36.393Z,20.29
2023-04-29T21:24:03.302Z,20.28
2023-04-29T21:26:30.076Z,20.26
2023-04-29T21:28:56.854Z,20.26
2023-04-29T21:31:23.621Z,20.26
2023-04-29T21:33:50.508Z,20.25
2023-04-29T21:36:17.344Z,20.23
2023-04-29T21:38:44.090Z,20.23
2023-04-29T21:41:38.757Z,20.21
2023-04-29T21:44:06.808Z,20.21
2023-04-29T21:46:34.593Z,20.20
2023-04-29T21:49:02.551Z,20.19
2023-04-29T21:51:29.837Z,20.20
2023-04-29T21:53:56.607Z,20.20
2023-04-29T21:56:24.714Z,20.17
2023-04-29T21:58:51.561Z,20.16
2023-04-29T22:01:40.028Z,20.16
2023-04-29T22:04:07.346Z,20.14
2023-04-29T22:06:34.735Z,20.15
2023-04-29T22:09:01.702Z,20.13
2023-04-29T22:11:29.059Z,20.11
2023-04-29T22:13:56.093Z,20.11
2023-04-29T22:16:26.230Z,20.11
2023-04-29T22:18:53.135Z,20.10
2023-04-29T22:21:19.894Z,20.10
2023-04-29T22:23:46.838Z,20.09
2023-04-29T22:26:13.677Z,20.10
2023-04-29T22:28:40.443Z,20.08
2023-04-29T22:31:07.425Z,20.07
2023-04-29T22:33:35.217Z,20.06
2023-04-29T22:36:02.553Z,20.06
2023-04-29T22:38:29.781Z,20.05
2023-04-29T22:40:56.579Z,20.04
2023-04-29T22:43:23.380Z,20.01
2023-04-29T22:45:53.970Z,20.02
2023-04-29T22:48:20.908Z,20.01
2023-04-29T22:50:52.201Z,20.02
2023-04-29T22:53:19.610Z,20.00
2023-04-29T22:55:53.890Z,20.00
2023-04-29T22:58:22.002Z,20.00
2023-04-29T23:00:56.736Z,19.99
2023-04-29T23:03:24.664Z,19.99
2023-04-29T23:05:52.086Z,19.98
2023-04-29T23:08:18.821Z,19.96
2023-04-29T23:10:52.224Z,19.96
2023-04-29T23:13:19.046Z,19.95
2023-04-29T23:15:46.284Z,19.96
2023-04-29T23:18:13.286Z,19.95
2023-04-29T23:20:40.213Z,19.95
2023-04-29T23:23:06.993Z,19.93
2023-04-29T23:25:34.704Z,19.92
2023-04-29T23:28:01.520Z,19.92
2023-04-29T23:30:28.272Z,19.93
2023-04-29T23:32:55.132Z,19.90
2023-04-29T23:35:22.006Z,19.91
2023-04-29T23:37:48.861Z,19.90
2023-04-29T23:40:18.208Z,19.87
2023-04-29T23:42:44.972Z,19.89
2023-04-29T23:45:11.771Z,19.89
2023-04-29T23:47:38.567Z,19.88
2023-04-29T23:50:05.976Z,19.86
2023-04-29T23:52:32.740Z,19.86
2023-04-29T23:54:59.790Z,19.84
2023-04-29T23:57:26.577Z,19.82
2023-04-29T23:59:53.489Z,19.84
